createdAt,value
2022-12-15T00:02:18.384Z,-1.80
2022-12-15T00:05:03.811Z,-1.80
2022-12-15T00:07:49.157Z,-1.80
2022-12-15T00:10:36.335Z,-1.80
2022-12-15T00:13:21.981Z,-1.80
2022-12-15T00:16:07.350Z,-1.80
2022-12-15T00:18:53.020Z,-1.90
2022-12-15T00:21:38.702Z,-1.90
2022-12-15T00:24:24.628Z,-1.90
2022-12-15T00:27:11.661Z,-1.90
2022-12-15T00:29:57.006Z,-1.90
2022-12-15T00:32:42.238Z,-1.90
2022-12-15T00:35:27.930Z,-1.90
2022-12-15T00:38:13.270Z,-1.90
2022-12-15T00:40:41.201Z,-2.00
2022-12-15T00:43:12.029Z,-2.00
2022-12-15T00:45:57.797Z,-2.00
2022-12-15T00:48:25.676Z,-2.00
2022-12-15T00:50:52.593Z,-2.00
2022-12-15T00:53:37.913Z,-2.00
2022-12-15T00:56:23.468Z,-2.00
2022-12-15T00:59:10.521Z,-2.00
2022-12-15T01:01:56.121Z,-2.00
2022-12-15T01:04:41.774Z,-2.00
2022-12-15T01:07:27.310Z,-2.00
2022-12-15T01:10:12.488Z,-1.90
2022-12-15T01:12:57.928Z,-2.00
2022-12-15T01:15:45.235Z,-2.00
2022-12-15T01:18:30.797Z,-2.00
2022-12-15T01:20:58.869Z,-2.00
2022-12-15T01:23:26.986Z,-2.00
2022-12-15T01:25:55.220Z,-2.00
2022-12-15T01:28:23.497Z,-2.00
2022-12-15T01:30:53.603Z,-2.00
2022-12-15T01:33:22.054Z,-2.00
2022-12-15T01:35:56.221Z,-2.00
2022-12-15T01:38:24.120Z,-2.00
2022-12-15T01:40:52.081Z,-2.00
2022-12-15T01:43:22.607Z,-2.00
2022-12-15T01:46:08.383Z,-2.00
2022-12-15T01:48:40.426Z,-2.00
2022-12-15T01:51:14.694Z,-2.00
2022-12-15T01:53:44.672Z,-2.00
2022-12-15T01:56:13.039Z,-2.00
2022-12-15T01:58:43.042Z,-2.00
2022-12-15T02:01:11.361Z,-2.00
2022-12-15T02:03:40.859Z,-2.00
2022-12-15T02:06:09.362Z,-2.00
2022-12-15T02:08:37.798Z,-2.00
2022-12-15T02:11:11.532Z,-2.00
2022-12-15T02:13:45.691Z,-2.00
2022-12-15T02:16:20.610Z,-2.00
2022-12-15T02:18:55.161Z,-2.00
2022-12-15T02:21:28.190Z,-2.00
2022-12-15T02:24:15.314Z,-2.00
2022-12-15T02:26:55.123Z,-2.00
2022-12-15T02:29:31.205Z,-2.00
2022-12-15T02:32:01.413Z,-2.00
2022-12-15T02:34:34.477Z,-2.00
2022-12-15T02:37:05.054Z,-2.00
2022-12-15T02:39:32.944Z,-2.00
2022-12-15T02:42:01.141Z,-2.00
2022-12-15T02:44:31.330Z,-2.00
2022-12-15T02:47:06.738Z,-2.00
2022-12-15T02:49:39.506Z,-2.00
2022-12-15T02:52:12.287Z,-2.00
2022-12-15T02:54:47.467Z,-2.00
2022-12-15T02:57:18.905Z,-2.00
2022-12-15T02:59:55.489Z,-2.00
2022-12-15T03:02:26.838Z,-2.00
2022-12-15T03:04:55.292Z,-2.00
2022-12-15T03:07:24.019Z,-2.00
2022-12-15T03:09:52.104Z,-2.00
2022-12-15T03:12:20.172Z,-2.10
2022-12-15T03:14:48.126Z,-2.10
2022-12-15T03:17:16.041Z,-2.00
2022-12-15T03:19:45.523Z,-2.10
2022-12-15T03:22:17.661Z,-2.10
2022-12-15T03:24:45.913Z,-2.10
2022-12-15T03:27:13.901Z,-2.10
2022-12-15T03:29:41.824Z,-2.10
2022-12-15T03:32:09.782Z,-2.00
2022-12-15T03:34:38.265Z,-2.10
2022-12-15T03:37:07.556Z,-2.00
2022-12-15T03:39:35.797Z,-2.00
2022-12-15T03:42:03.709Z,-2.10
2022-12-15T03:44:31.787Z,-2.10
2022-12-15T03:47:03.244Z,-2.10
2022-12-15T03:49:32.072Z,-2.10
2022-12-15T03:51:59.983Z,-2.10
2022-12-15T03:54:29.362Z,-2.20
2022-12-15T03:56:57.258Z,-2.20
2022-12-15T03:59:25.214Z,-2.20
2022-12-15T04:01:53.185Z,-2.20
2022-12-15T04:04:21.231Z,-2.20
2022-12-15T04:06:49.140Z,-2.20
2022-12-15T04:09:17.188Z,-2.20
2022-12-15T04:11:46.637Z,-2.20
2022-12-15T04:14:14.621Z,-2.20
2022-12-15T04:16:42.922Z,-2.20
2022-12-15T04:19:28.466Z,-2.20
2022-12-15T04:21:58.037Z,-2.20
2022-12-15T04:24:43.525Z,-2.20
2022-12-15T04:27:30.234Z,-2.20
2022-12-15T04:30:15.566Z,-2.20
2022-12-15T04:33:01.135Z,-2.20
2022-12-15T04:35:49.905Z,-2.20
2022-12-15T04:38:35.580Z,-2.20
2022-12-15T04:41:20.849Z,-2.10
2022-12-15T04:44:08.062Z,-2.10
2022-12-15T04:46:53.611Z,-2.20
2022-12-15T04:49:39.114Z,-2.20
2022-12-15T04:52:24.404Z,-2.20
2022-12-15T04:55:09.583Z,-2.20
2022-12-15T04:57:54.887Z,-2.20
2022-12-15T05:00:41.597Z,-2.20
2022-12-15T05:03:26.920Z,-2.20
2022-12-15T05:06:12.465Z,-2.20
2022-12-15T05:08:57.639Z,-2.20
2022-12-15T05:11:43.182Z,-2.20
2022-12-15T05:14:28.769Z,-2.20
2022-12-15T05:17:15.556Z,-2.20
2022-12-15T05:20:01.086Z,-2.20
2022-12-15T05:22:46.319Z,-2.20
2022-12-15T05:25:32.106Z,-2.20
2022-12-15T05:28:17.637Z,-2.30
2022-12-15T05:31:03.134Z,-2.30
2022-12-15T05:33:32.895Z,-2.20
2022-12-15T05:36:01.760Z,-2.30
2022-12-15T05:38:29.888Z,-2.20
2022-12-15T05:40:58.334Z,-2.20
2022-12-15T05:43:26.877Z,-2.20
2022-12-15T05:45:55.189Z,-2.20
2022-12-15T05:48:23.285Z,-2.20
2022-12-15T05:50:52.539Z,-2.20
2022-12-15T05:53:20.778Z,-2.20
2022-12-15T05:55:48.664Z,-2.30
2022-12-15T05:58:16.665Z,-2.30
2022-12-15T06:00:44.628Z,-2.20
2022-12-15T06:03:13.485Z,-2.30
2022-12-15T06:05:41.584Z,-2.30
2022-12-15T06:08:11.373Z,-2.30
2022-12-15T06:10:39.442Z,-2.30
2022-12-15T06:13:07.657Z,-2.30
2022-12-15T06:15:35.556Z,-2.30
2022-12-15T06:18:03.459Z,-2.30
2022-12-15T06:20:31.560Z,-2.30
2022-12-15T06:22:59.516Z,-2.30
2022-12-15T06:25:28.901Z,-2.30
2022-12-15T06:28:01.593Z,-2.40
2022-12-15T06:30:30.308Z,-2.40
2022-12-15T06:32:58.267Z,-2.30
2022-12-15T06:35:26.176Z,-2.40
2022-12-15T06:37:54.070Z,-2.40
2022-12-15T06:40:21.990Z,-2.40
2022-12-15T06:42:51.341Z,-2.40
2022-12-15T06:45:19.616Z,-2.40
2022-12-15T06:47:49.193Z,-2.40
2022-12-15T06:50:17.188Z,-2.40
2022-12-15T06:52:45.140Z,-2.40
2022-12-15T06:55:14.227Z,-2.40
2022-12-15T06:57:42.135Z,-2.40
2022-12-15T07:00:12.342Z,-2.50
2022-12-15T07:02:41.212Z,-2.40
2022-12-15T07:05:09.544Z,-2.50
2022-12-15T07:07:37.435Z,-2.50
2022-12-15T07:10:05.851Z,-2.50
2022-12-15T07:12:33.749Z,-2.50
2022-12-15T07:15:02.013Z,-2.40
2022-12-15T07:17:31.396Z,-2.40
2022-12-15T07:19:59.651Z,-2.40
2022-12-15T07:22:29.122Z,-2.30
2022-12-15T07:24:57.007Z,-2.30
2022-12-15T07:27:25.154Z,-2.20
2022-12-15T07:29:53.349Z,-2.20
2022-12-15T07:32:21.852Z,-2.20
2022-12-15T07:34:51.376Z,-2.20
2022-12-15T07:37:19.637Z,-2.10
2022-12-15T07:39:47.629Z,-2.00
2022-12-15T07:42:15.534Z,-2.00
2022-12-15T07:44:43.622Z,-2.00
2022-12-15T07:47:11.486Z,-1.90
2022-12-15T07:49:39.428Z,-1.90
2022-12-15T07:52:08.679Z,-1.90
2022-12-15T07:54:36.864Z,-1.80
2022-12-15T07:57:07.351Z,-1.80
2022-12-15T07:59:35.541Z,-1.80
2022-12-15T08:02:04.656Z,-1.70
2022-12-15T08:04:32.895Z,-1.60
2022-12-15T08:07:01.038Z,-1.50
2022-12-15T08:09:31.695Z,-1.50
2022-12-15T08:11:59.823Z,-1.40
2022-12-15T08:14:28.701Z,-1.40
2022-12-15T08:16:56.654Z,-1.40
2022-12-15T08:19:24.653Z,-1.30
2022-12-15T08:21:52.530Z,-1.20
2022-12-15T08:24:20.755Z,-1.00
2022-12-15T08:26:50.627Z,-1.00
2022-12-15T08:32:07.437Z,-0.80
2022-12-15T08:34:35.469Z,-0.80
2022-12-15T08:37:03.542Z,-0.90
2022-12-15T08:39:31.475Z,-0.80
2022-12-15T08:42:00.828Z,-0.80
2022-12-15T08:44:28.916Z,-0.80
2022-12-15T08:46:57.167Z,-0.70
2022-12-15T08:49:25.751Z,-0.70
2022-12-15T08:51:53.975Z,-0.70
2022-12-15T08:54:22.024Z,-0.60
2022-12-15T08:56:50.174Z,-0.50
2022-12-15T08:59:20.080Z,-0.40
2022-12-15T09:01:48.573Z,-0.30
2022-12-15T09:04:17.161Z,-0.30
2022-12-15T09:06:50.255Z,-0.20
2022-12-15T09:09:18.536Z,-0.10
2022-12-15T09:11:46.420Z,0.00
2022-12-15T09:14:14.683Z,0.10
2022-12-15T09:16:43.980Z,0.20
2022-12-15T09:19:11.916Z,0.30
2022-12-15T09:21:42.915Z,0.40
2022-12-15T09:24:17.697Z,0.40
2022-12-15T09:26:50.257Z,0.50
2022-12-15T09:29:19.002Z,0.50
2022-12-15T09:31:48.209Z,0.60
2022-12-15T09:34:16.314Z,0.60
2022-12-15T09:36:44.221Z,0.60
2022-12-15T09:39:12.380Z,0.60
2022-12-15T09:41:41.607Z,0.70
2022-12-15T09:44:13.052Z,0.80
2022-12-15T09:46:54.366Z,0.90
2022-12-15T09:49:26.189Z,1.00
2022-12-15T09:51:57.369Z,1.00
2022-12-15T09:54:27.819Z,1.10
2022-12-15T09:56:57.063Z,1.10
2022-12-15T09:59:29.382Z,1.20
2022-12-15T10:02:03.404Z,1.20
2022-12-15T10:04:35.204Z,1.20
2022-12-15T10:07:08.648Z,1.30
2022-12-15T10:09:37.823Z,1.40
2022-12-15T10:12:08.380Z,1.60
2022-12-15T10:14:38.760Z,1.70
2022-12-15T10:17:17.856Z,1.80
2022-12-15T10:19:50.048Z,1.90
2022-12-15T10:22:21.463Z,2.00
2022-12-15T10:27:47.380Z,2.20
2022-12-15T10:30:17.442Z,2.30
2022-12-15T10:32:51.003Z,2.40
2022-12-15T10:35:21.898Z,2.40
2022-12-15T10:37:50.065Z,2.40
2022-12-15T10:40:27.125Z,2.40
2022-12-15T10:42:54.955Z,2.40
2022-12-15T10:45:31.309Z,2.30
2022-12-15T10:48:02.674Z,2.20
2022-12-15T10:50:30.769Z,2.20
2022-12-15T10:52:58.710Z,2.30
2022-12-15T10:55:32.532Z,2.40
2022-12-15T10:58:02.381Z,2.30
2022-12-15T11:00:31.165Z,2.20
2022-12-15T11:03:01.286Z,2.10
2022-12-15T11:05:29.374Z,2.00
2022-12-15T11:07:57.819Z,2.00
2022-12-15T11:10:26.384Z,1.90
2022-12-15T11:12:59.365Z,2.00
2022-12-15T11:15:40.679Z,2.00
2022-12-15T11:18:13.060Z,2.00
2022-12-15T11:20:42.076Z,1.90
2022-12-15T11:23:13.051Z,1.90
2022-12-15T11:25:43.777Z,1.90
2022-12-15T11:28:16.797Z,1.90
2022-12-15T11:30:46.672Z,1.90
2022-12-15T11:33:16.295Z,1.90
2022-12-15T11:35:52.149Z,1.90
2022-12-15T11:38:25.639Z,1.90
2022-12-15T11:40:54.915Z,1.90
2022-12-15T11:43:37.298Z,1.80
2022-12-15T11:46:14.087Z,1.80
2022-12-15T11:48:49.016Z,1.70
2022-12-15T11:51:22.003Z,1.70
2022-12-15T11:54:03.644Z,1.60
2022-12-15T11:56:34.630Z,1.60
2022-12-15T11:59:28.620Z,1.60
2022-12-15T12:02:08.620Z,1.60
2022-12-15T12:04:41.052Z,1.60
2022-12-15T12:07:11.963Z,1.60
2022-12-15T12:09:44.517Z,1.60
2022-12-15T12:12:20.397Z,1.60
2022-12-15T12:14:52.374Z,1.70
2022-12-15T12:17:25.209Z,1.70
2022-12-15T12:19:55.870Z,1.70
2022-12-15T12:22:26.843Z,1.80
2022-12-15T12:24:57.724Z,1.90
2022-12-15T12:27:29.164Z,1.90
2022-12-15T12:30:00.530Z,1.90
2022-12-15T12:32:31.401Z,2.00
2022-12-15T12:35:30.626Z,2.00
2022-12-15T12:37:56.878Z,2.00
2022-12-15T12:40:32.687Z,2.10
2022-12-15T12:43:01.086Z,2.00
2022-12-15T12:45:30.946Z,2.00
2022-12-15T12:48:01.731Z,1.90
2022-12-15T12:50:31.549Z,1.90
2022-12-15T12:53:00.386Z,1.90
2022-12-15T12:55:30.567Z,1.80
2022-12-15T12:57:58.456Z,1.80
2022-12-15T13:00:27.759Z,1.70
2022-12-15T13:03:10.888Z,1.70
2022-12-15T13:05:40.605Z,1.70
2022-12-15T13:08:20.366Z,1.70
2022-12-15T13:13:48.507Z,1.60
2022-12-15T13:16:21.336Z,1.60
2022-12-15T13:19:05.216Z,1.60
2022-12-15T13:22:03.055Z,1.50
2022-12-15T13:24:35.845Z,1.50
2022-12-15T13:27:13.840Z,1.40
2022-12-15T13:29:58.435Z,1.40
2022-12-15T13:32:29.105Z,1.40
2022-12-15T13:34:57.743Z,1.40
2022-12-15T13:37:45.073Z,1.40
2022-12-15T13:40:33.000Z,1.30
2022-12-15T13:45:50.677Z,1.20
2022-12-15T13:48:36.966Z,1.10
2022-12-15T13:51:10.534Z,1.00
2022-12-15T13:53:41.476Z,1.00
2022-12-15T13:56:22.386Z,1.00
2022-12-15T13:58:54.960Z,1.00
2022-12-15T14:01:27.232Z,0.90
2022-12-15T14:04:04.230Z,0.90
2022-12-15T14:06:37.725Z,0.90
2022-12-15T14:09:06.381Z,0.80
2022-12-15T14:11:52.387Z,0.80
2022-12-15T14:14:23.881Z,0.80
2022-12-15T14:16:57.178Z,0.70
2022-12-15T14:19:27.078Z,0.70
2022-12-15T14:21:55.867Z,0.70
2022-12-15T14:24:41.391Z,0.60
2022-12-15T14:27:11.152Z,0.60
2022-12-15T14:29:39.444Z,0.50
2022-12-15T14:32:07.421Z,0.50
2022-12-15T14:34:38.819Z,0.50
2022-12-15T14:37:08.812Z,0.40
2022-12-15T14:39:38.897Z,0.30
2022-12-15T14:42:07.470Z,0.30
2022-12-15T14:44:39.444Z,0.30
2022-12-15T14:47:09.344Z,0.30
2022-12-15T14:49:39.773Z,0.20
2022-12-15T14:52:08.543Z,0.20
2022-12-15T14:54:37.645Z,0.20
2022-12-15T14:57:13.928Z,0.20
2022-12-15T14:59:44.731Z,0.10
2022-12-15T15:02:14.284Z,0.10
2022-12-15T15:03:11.488Z,1.70
2022-12-15T15:04:42.331Z,0.10
2022-12-15T15:07:17.411Z,0.00
2022-12-15T15:09:47.452Z,0.00
2022-12-15T15:12:16.722Z,0.00
2022-12-15T15:14:47.136Z,-0.10
2022-12-15T15:17:23.726Z,0.00
2022-12-15T15:19:52.861Z,0.00
2022-12-15T15:22:30.685Z,-0.10
2022-12-15T15:24:58.516Z,-0.10
2022-12-15T15:27:27.923Z,-0.10
2022-12-15T15:30:13.424Z,-0.10
2022-12-15T15:32:50.505Z,-0.10
2022-12-15T15:35:19.055Z,-0.10
2022-12-15T15:37:47.258Z,-0.20
2022-12-15T15:40:17.298Z,-0.10
2022-12-15T15:42:46.153Z,-0.20
2022-12-15T15:45:16.046Z,-0.20
2022-12-15T15:47:46.830Z,-0.20
2022-12-15T15:50:16.703Z,-0.20
2022-12-15T15:52:44.746Z,-0.30
2022-12-15T15:55:16.229Z,-0.30
2022-12-15T15:57:44.075Z,-0.30
2022-12-15T16:00:19.112Z,-0.30
2022-12-15T16:02:47.319Z,-0.30
2022-12-15T16:05:15.854Z,-0.30
2022-12-15T16:07:44.348Z,-0.30
2022-12-15T16:10:14.045Z,-0.40
2022-12-15T16:12:43.453Z,-0.40
2022-12-15T16:15:20.795Z,-0.40
2022-12-15T16:17:48.974Z,-0.40
2022-12-15T16:20:17.690Z,-0.40
2022-12-15T16:22:47.068Z,-0.40
2022-12-15T16:25:17.132Z,-0.40
2022-12-15T16:27:45.082Z,-0.50
2022-12-15T16:30:17.413Z,-0.50
2022-12-15T16:32:46.671Z,-0.50
2022-12-15T16:35:14.873Z,-0.50
2022-12-15T16:37:46.559Z,-0.50
2022-12-15T16:40:16.527Z,-0.50
2022-12-15T16:42:46.181Z,-0.50
2022-12-15T16:45:15.849Z,-0.60
2022-12-15T16:47:44.118Z,-0.60
2022-12-15T16:50:15.991Z,-0.60
2022-12-15T16:52:44.478Z,-0.60
2022-12-15T16:55:18.174Z,-0.70
2022-12-15T16:57:46.109Z,-0.70
2022-12-15T17:00:18.289Z,-0.70
2022-12-15T17:02:46.640Z,-0.70
2022-12-15T17:05:16.745Z,-0.70
2022-12-15T17:07:46.639Z,-0.80
2022-12-15T17:10:18.177Z,-0.70
2022-12-15T17:12:46.280Z,-0.80
2022-12-15T17:15:18.681Z,-0.70
2022-12-15T17:17:46.595Z,-0.70
2022-12-15T17:20:29.669Z,-0.70
2022-12-15T17:23:00.804Z,-0.70
2022-12-15T17:26:01.638Z,-0.80
2022-12-15T17:28:23.708Z,-0.80
2022-12-15T17:30:52.370Z,-0.80
2022-12-15T17:33:21.932Z,-0.80
2022-12-15T17:35:52.101Z,-0.80
2022-12-15T17:38:21.135Z,-0.80
2022-12-15T17:40:49.828Z,-0.80
2022-12-15T17:43:18.835Z,-0.80
2022-12-15T17:45:47.075Z,-0.90
2022-12-15T17:48:15.186Z,-0.90
2022-12-15T17:50:43.143Z,-0.90
2022-12-15T17:53:14.131Z,-0.90
2022-12-15T17:55:42.092Z,-0.90
2022-12-15T17:58:16.800Z,-0.90
2022-12-15T18:00:49.192Z,-0.90
2022-12-15T18:03:17.476Z,-0.90
2022-12-15T18:05:45.750Z,-0.90
2022-12-15T18:08:16.496Z,-0.90
2022-12-15T18:10:45.041Z,-0.90
2022-12-15T18:13:17.160Z,-1.00
2022-12-15T18:15:46.565Z,-1.00
2022-12-15T18:18:15.579Z,-1.00
2022-12-15T18:20:44.147Z,-1.00
2022-12-15T18:23:17.609Z,-1.00
2022-12-15T18:25:45.478Z,-1.00
2022-12-15T18:28:19.657Z,-1.00
2022-12-15T18:30:47.744Z,-1.10
2022-12-15T18:33:15.793Z,-1.10
2022-12-15T18:35:44.632Z,-1.10
2022-12-15T18:38:16.127Z,-1.10
2022-12-15T18:40:46.127Z,-1.00
2022-12-15T18:43:15.277Z,-1.00
2022-12-15T18:45:43.250Z,-1.00
2022-12-15T18:48:16.327Z,-1.00
2022-12-15T18:50:44.228Z,-1.00
2022-12-15T18:53:15.644Z,-1.10
2022-12-15T18:55:44.872Z,-1.10
2022-12-15T18:58:18.679Z,-1.10
2022-12-15T19:00:48.041Z,-1.10
2022-12-15T19:03:16.174Z,-1.10
2022-12-15T19:05:44.568Z,-1.20
2022-12-15T19:08:13.607Z,-1.20
2022-12-15T19:10:45.760Z,-1.20
2022-12-15T19:13:15.439Z,-1.20
2022-12-15T19:15:43.934Z,-1.30
2022-12-15T19:18:31.580Z,-1.30
2022-12-15T19:21:17.247Z,-1.30
2022-12-15T19:23:45.260Z,-1.30
2022-12-15T19:26:13.461Z,-1.30
2022-12-15T19:28:42.994Z,-1.30
2022-12-15T19:31:10.952Z,-1.30
2022-12-15T19:33:39.916Z,-1.30
2022-12-15T19:36:15.414Z,-1.30
2022-12-15T19:38:43.465Z,-1.30
2022-12-15T19:41:13.631Z,-1.30
2022-12-15T19:43:43.463Z,-1.30
2022-12-15T19:46:12.937Z,-1.20
2022-12-15T19:48:40.987Z,-1.20
2022-12-15T19:51:12.321Z,-1.30
2022-12-15T19:53:40.711Z,-1.30
2022-12-15T19:56:08.979Z,-1.30
2022-12-15T19:58:37.327Z,-1.30
2022-12-15T20:01:07.868Z,-1.30
2022-12-15T20:03:36.721Z,-1.30
2022-12-15T20:06:05.650Z,-1.30
2022-12-15T20:08:35.316Z,-1.30
2022-12-15T20:11:03.540Z,-1.30
2022-12-15T20:13:31.902Z,-1.20
2022-12-15T20:16:00.103Z,-1.20
2022-12-15T20:18:29.653Z,-1.20
2022-12-15T20:20:59.168Z,-1.20
2022-12-15T20:23:27.676Z,-1.20
2022-12-15T20:25:56.315Z,-1.20
2022-12-15T20:28:25.249Z,-1.20
2022-12-15T20:30:53.997Z,-1.20
2022-12-15T20:33:21.972Z,-1.20
2022-12-15T20:35:51.629Z,-1.20
2022-12-15T20:38:29.574Z,-1.20
2022-12-15T20:40:57.544Z,-1.10
2022-12-15T20:43:26.172Z,-1.20
2022-12-15T20:45:59.226Z,-1.20
2022-12-15T20:48:27.189Z,-1.10
2022-12-15T20:50:56.487Z,-1.10
2022-12-15T20:53:25.879Z,-1.10
2022-12-15T20:55:54.695Z,-1.20
2022-12-15T20:58:25.937Z,-1.20
2022-12-15T21:00:56.256Z,-1.10
2022-12-15T21:03:25.814Z,-1.20
2022-12-15T21:05:55.802Z,-1.10
2022-12-15T21:08:26.467Z,-1.10
2022-12-15T21:10:54.987Z,-1.10
2022-12-15T21:13:24.627Z,-1.10
2022-12-15T21:15:52.837Z,-1.10
2022-12-15T21:19:03.605Z,-1.10
2022-12-15T21:21:13.345Z,-1.10
2022-12-15T21:23:43.037Z,-1.10
2022-12-15T21:26:11.423Z,-1.10
2022-12-15T21:28:39.309Z,-1.10
2022-12-15T21:31:07.185Z,-1.10
2022-12-15T21:33:35.076Z,-1.10
2022-12-15T21:36:02.973Z,-1.10
2022-12-15T21:38:33.327Z,-1.10
2022-12-15T21:41:03.702Z,-1.10
2022-12-15T21:43:33.852Z,-1.10
2022-12-15T21:46:02.286Z,-1.10
2022-12-15T21:48:47.772Z,-1.10
2022-12-15T21:51:16.214Z,-1.10
2022-12-15T21:53:45.345Z,-1.20
2022-12-15T21:56:18.241Z,-1.20
2022-12-15T21:58:48.932Z,-1.10
2022-12-15T22:01:17.153Z,-1.10
2022-12-15T22:03:45.936Z,-1.10
2022-12-15T22:06:18.582Z,-1.10
2022-12-15T22:08:46.541Z,-1.10
2022-12-15T22:11:19.922Z,-1.10
2022-12-15T22:13:47.836Z,-1.10
2022-12-15T22:16:15.862Z,-1.00
2022-12-15T22:18:43.941Z,-1.10
2022-12-15T22:21:11.816Z,-1.10
2022-12-15T22:23:39.714Z,-1.10
2022-12-15T22:26:07.722Z,-1.10
2022-12-15T22:28:38.483Z,-1.10
2022-12-15T22:31:06.563Z,-1.10
2022-12-15T22:33:35.449Z,-1.10
2022-12-15T22:36:03.364Z,-1.00
2022-12-15T22:38:31.555Z,-1.00
2022-12-15T22:41:01.144Z,-1.10
2022-12-15T22:43:32.526Z,-1.10
2022-12-15T22:46:02.137Z,-1.00
2022-12-15T22:48:31.893Z,-1.00
2022-12-15T22:50:59.997Z,-1.10
2022-12-15T22:53:28.737Z,-1.00
2022-12-15T22:55:56.786Z,-1.00
2022-12-15T22:58:26.042Z,-1.00
2022-12-15T23:00:56.059Z,-1.00
2022-12-15T23:03:25.592Z,-1.00
2022-12-15T23:05:53.569Z,-1.00
2022-12-15T23:08:21.676Z,-1.10
2022-12-15T23:11:07.708Z,-1.10
2022-12-15T23:13:35.733Z,-1.10
2022-12-15T23:16:21.878Z,-1.00
2022-12-15T23:18:52.456Z,-1.00
2022-12-15T23:21:23.324Z,-1.00
2022-12-15T23:23:51.534Z,-1.10
2022-12-15T23:26:20.644Z,-1.00
2022-12-15T23:28:49.286Z,-1.00
2022-12-15T23:31:17.750Z,-1.10
2022-12-15T23:33:45.762Z,-1.10
2022-12-15T23:36:15.078Z,-1.00
2022-12-15T23:38:43.049Z,-1.00
2022-12-15T23:41:15.450Z,-1.00
2022-12-15T23:43:43.573Z,-1.00
2022-12-15T23:46:11.577Z,-1.10
2022-12-15T23:48:40.485Z,-1.00
2022-12-15T23:51:09.824Z,-1.00
2022-12-15T23:53:39.927Z,-1.00
2022-12-15T23:56:09.699Z,-1.10
2022-12-15T23:58:37.996Z,-1.10
